Cap Romuald — SVGN — position and weather

sailwx.info

Track history (hours):
 
Tides and Currents Weather Stations Pressure Air Temp Water Temp Dewpoint Dewpoint Depression Visibility Wind Speed Wind Dir Waves Ship Positions

Cap Romuald

Last reported at 2017-Nov-17 15:15 UTC. Time now 2017-Nov-20 00:37 UTC.
Position N 29°54' W 093°55'.

Length 274 m; draft 11.6 m.

Type: Tanker. MMSI: 239574000.

Date/timePositionNaut miles runAvg speedWind from/ knotsBaromVisibWave heightAir tempDewpointWater temp
2017-Nov-17 15:15N 29°54' W 093°55'5 4.7
2017-Nov-17 14:05N 29°59' W 093°54'1 6.6
2017-Nov-17 13:54N 29°59' W 093°55'2 4.5
2017-Nov-17 13:27N 30°00' W 093°57'2 3.8
2017-Nov-17 12:56N 30°01' W 093°59'48 1.0
2017-Nov-15 15:16N 29°16' W 093°39'2 6.4
2017-Nov-15 14:59N 29°14' W 093°39'  
2017-Nov-12 09:09N 25°28' W 079°31'212.8
2017-Nov-12 09:00N 25°30' W 079°31'612.7
2017-Nov-12 08:30N 25°36' W 079°31'612.7
2017-Nov-12 08:00N 25°43' W 079°29'612.7
2017-Nov-12 07:30N 25°49' W 079°29'612.5
2017-Nov-12 07:00N 25°55' W 079°28'612.4
2017-Nov-12 06:30N 26°01' W 079°28'612.5
2017-Nov-12 06:00N 26°07' W 079°27'612.3
2017-Nov-12 05:30N 26°14' W 079°26'  
Track history (hours):
 
Tides and Currents Weather Stations Pressure Air Temp Water Temp Dewpoint Dewpoint Depression Visibility Wind Speed Wind Dir Waves Ship Positions

Cap Romuald

Last reported at 2017-Nov-17 15:15 UTC. Time now 2017-Nov-20 00:37 UTC.
Position N 29°54' W 093°55'.

Length 274 m; draft 11.6 m.

Type: Tanker. MMSI: 239574000.

Date/timePositionNaut miles runAvg speedWind from/ knotsBaromVisibWave heightAir tempDewpointWater temp
2017-Nov-17 15:15N 29°54' W 093°55'5 4.7
2017-Nov-17 14:05N 29°59' W 093°54'1 6.6
2017-Nov-17 13:54N 29°59' W 093°55'2 4.5
2017-Nov-17 13:27N 30°00' W 093°57'2 3.8
2017-Nov-17 12:56N 30°01' W 093°59'48 1.0
2017-Nov-15 15:16N 29°16' W 093°39'2 6.4
2017-Nov-15 14:59N 29°14' W 093°39'  
2017-Nov-12 09:09N 25°28' W 079°31'212.8
2017-Nov-12 09:00N 25°30' W 079°31'612.7
2017-Nov-12 08:30N 25°36' W 079°31'612.7
2017-Nov-12 08:00N 25°43' W 079°29'612.7
2017-Nov-12 07:30N 25°49' W 079°29'612.5
2017-Nov-12 07:00N 25°55' W 079°28'612.4
2017-Nov-12 06:30N 26°01' W 079°28'612.5
2017-Nov-12 06:00N 26°07' W 079°27'612.3
2017-Nov-12 05:30N 26°14' W 079°26'  

Dump ship's entire track history